Sect Clausell, Puerto Rico
Current Conditions -  °F | °C
As of 10:50 AM on Wednesday 22 Oct 2014 (Local Time) from TJBQ Reporting Station
Few Clouds Few Clouds  
Wind Chill: 86°   Ceiling: Unl
Heat Index: 92°   Visibility: 10mi
Dew Point: 72°   Wind: 13mph
Humidity: 62%   Direction: 60°ENE
Pressure: 30"   Gusts: NA
Location:  18.0152°N, 66.6246°W
Report Text: TJBQ 221450Z 06011KT 10SM FEW080 30/22 A3000 RMK RWY 8 ATIS O
Loading
Personal Weather Stations






























Interactive Weather Map
Tropical Storm Tracking
New forecast layout! Learn more

10-Day Weather Forecast

Advertisements
Track Severe Weather on mobile